Time;durP1;ratioP1;P1;durP2;ratioP2;P2;SDS_P1;SDS_P2;PMS_P1;PMS_P2;Temp;Humidity;BMP_temperature;BMP_pressure;BME280_temperature;BME280_humidity;BME280_pressure;Samples;Min_cycle;Max_cycle;Signal;HPM_P1;HPM_P2
2021/11/19 00:00:27;;;;;;;88.07;43.10;;;;;;;4.48;69.12;101213.03;125269;1102;104146;-79
2021/11/19 00:03:14;;;;;;;83.57;39.90;;;;;;;4.43;69.77;101202.30;125298;1102;104146;-80
2021/11/19 00:05:43;;;;;;;82.87;38.77;;;;;;;4.40;69.35;101195.99;125186;1102;104188;-79
2021/11/19 00:08:11;;;;;;;79.37;37.40;;;;;;;4.37;69.48;101195.77;125253;1102;104191;-79
2021/11/19 00:10:40;;;;;;;84.83;40.20;;;;;;;4.35;69.68;101194.73;125254;1102;104288;-79
2021/11/19 00:13:08;;;;;;;85.00;40.10;;;;;;;4.32;69.80;101191.14;125240;1102;104201;-79
2021/11/19 00:15:36;;;;;;;82.13;40.23;;;;;;;4.30;69.73;101195.33;125196;1101;104227;-80
2021/11/19 00:18:05;;;;;;;84.40;41.10;;;;;;;4.26;69.41;101197.59;125268;1102;104225;-79
2021/11/19 00:20:34;;;;;;;89.43;41.53;;;;;;;4.25;70.16;101190.58;125179;1102;101699;-80
2021/11/19 00:23:04;;;;;;;83.80;39.07;;;;;;;4.25;70.36;101198.38;125286;1099;104174;-79
2021/11/19 00:25:34;;;;;;;84.30;40.37;;;;;;;4.25;70.69;101193.18;125241;1102;104163;-78
2021/11/19 00:28:04;;;;;;;82.00;39.17;;;;;;;4.26;70.32;101189.80;125213;1102;104171;-80
2021/11/19 00:30:33;;;;;;;81.77;39.70;;;;;;;4.28;70.21;101183.91;125227;1102;105581;-79
2021/11/19 00:33:03;;;;;;;84.30;40.60;;;;;;;4.29;70.33;101184.83;125303;1102;104163;-79
2021/11/19 00:35:32;;;;;;;83.50;41.40;;;;;;;4.27;69.62;101194.19;125314;1102;104284;-79
2021/11/19 00:38:01;;;;;;;85.60;41.20;;;;;;;4.23;70.84;101193.07;125306;1102;104165;-79
2021/11/19 00:40:32;;;;;;;84.60;40.47;;;;;;;4.17;70.56;101189.14;125230;1102;104155;-80
2021/11/19 00:43:01;;;;;;;87.10;40.87;;;;;;;4.14;70.19;101184.61;125246;1099;104152;-79
2021/11/19 00:45:31;;;;;;;82.93;39.10;;;;;;;4.10;70.39;101187.80;125270;1099;104175;-79
2021/11/19 00:48:00;;;;;;;76.47;37.70;;;;;;;4.08;69.81;101181.57;125255;1099;104312;-80
2021/11/19 00:50:32;;;;;;;80.00;39.80;;;;;;;4.06;70.39;101188.36;125242;1102;104149;-79
2021/11/19 00:53:02;;;;;;;82.90;40.30;;;;;;;4.07;70.65;101174.59;125184;1102;104156;-80
2021/11/19 00:55:30;;;;;;;87.77;41.27;;;;;;;4.08;70.97;101186.77;125316;1101;104162;-80
2021/11/19 00:57:58;;;;;;;87.03;42.30;;;;;;;4.07;70.58;101179.78;125270;1100;104320;-80
2021/11/19 01:00:31;;;;;;;83.83;42.03;;;;;;;4.06;70.73;101173.66;125261;1102;104211;-79
2021/11/19 01:02:59;;;;;;;88.50;43.03;;;;;;;4.06;70.35;101180.56;125263;1099;104281;-79
2021/11/19 01:05:27;;;;;;;88.30;42.63;;;;;;;4.03;70.66;101172.55;125328;1099;104185;-79
2021/11/19 01:07:55;;;;;;;87.47;42.60;;;;;;;4.02;70.66;101171.66;125165;1100;104293;-79
2021/11/19 01:10:28;;;;;;;91.53;43.87;;;;;;;4.02;70.44;101165.54;125302;1099;104286;-79
2021/11/19 01:12:56;;;;;;;88.23;39.90;;;;;;;4.00;70.53;101165.42;125228;1102;104217;-79
2021/11/19 01:15:29;;;;;;;88.20;43.03;;;;;;;3.99;70.19;101165.31;125296;1102;101792;-79
2021/11/19 01:17:59;;;;;;;85.00;40.73;;;;;;;3.98;70.38;101181.71;125271;1101;104274;-79
2021/11/19 01:20:36;;;;;;;91.83;43.10;;;;;;;3.92;70.90;101172.66;125188;1102;104208;-77
2021/11/19 01:23:10;;;;;;;88.13;40.80;;;;;;;3.90;71.08;101171.66;125224;1102;104922;-77
2021/11/19 01:25:43;;;;;;;91.53;42.67;;;;;;;3.88;70.59;101173.25;125216;1102;104155;-79
2021/11/19 01:28:11;;;;;;;93.63;42.17;;;;;;;3.85;70.91;101166.91;125252;1102;104159;-80
2021/11/19 01:30:44;;;;;;;91.17;43.30;;;;;;;3.82;70.48;101165.01;125199;1102;104198;-80
2021/11/19 01:33:13;;;;;;;90.13;41.83;;;;;;;3.79;71.53;101159.59;125215;1102;104310;-79
2021/11/19 01:36:00;;;;;;;87.60;41.13;;;;;;;3.76;70.89;101162.85;125240;1102;104275;-79
2021/11/19 01:38:41;;;;;;;85.73;40.17;;;;;;;3.78;71.18;101170.75;125299;1102;104516;-79
2021/11/19 01:41:41;;;;;;;93.67;42.60;;;;;;;3.76;70.98;101174.94;125264;1102;104210;-79
2021/11/19 01:44:16;;;;;;;84.50;41.10;;;;;;;3.74;70.45;101163.52;125247;1099;118447;-78
2021/11/19 01:46:46;;;;;;;90.63;42.47;;;;;;;3.73;71.15;101174.71;125239;1100;104289;-79
2021/11/19 01:49:15;;;;;;;86.10;41.40;;;;;;;3.73;71.34;101177.31;125318;1099;104175;-80
2021/11/19 01:51:51;;;;;;;88.13;43.20;;;;;;;3.70;70.70;101171.89;125202;1102;104143;-80
2021/11/19 01:54:23;;;;;;;85.40;40.03;;;;;;;3.68;71.24;101176.08;125234;1102;104745;-79
2021/11/19 01:56:56;;;;;;;88.40;42.60;;;;;;;3.65;71.02;101168.06;125315;1102;104143;-79
2021/11/19 01:59:33;;;;;;;86.77;42.83;;;;;;;3.63;71.16;101167.95;125243;1102;104281;-80
2021/11/19 02:02:05;;;;;;;91.27;43.27;;;;;;;3.62;70.92;101170.43;125272;1102;104152;-79
2021/11/19 02:04:37;;;;;;;85.67;40.67;;;;;;;3.58;71.08;101172.80;125246;1102;110559;-79
2021/11/19 02:07:08;;;;;;;91.00;42.70;;;;;;;3.56;71.04;101178.65;125215;1102;104152;-79
2021/11/19 02:10:04;;;;;;;93.00;41.45;;;;;;;3.53;71.24;101160.25;125208;1102;104156;-79
2021/11/19 02:12:44;;;;;;;81.87;39.33;;;;;;;3.51;70.68;101169.63;125222;1102;104269;-80
2021/11/19 02:15:17;;;;;;;86.70;43.20;;;;;;;3.50;71.83;101167.81;125250;1102;104153;-79
2021/11/19 02:17:50;;;;;;;89.30;42.70;;;;;;;3.50;71.26;101163.52;125288;1099;104340;-80
2021/11/19 02:20:22;;;;;;;90.00;42.97;;;;;;;3.52;71.36;101167.15;125210;1102;104586;-80
2021/11/19 02:22:54;;;;;;;86.87;40.20;;;;;;;3.54;71.54;101167.27;125255;1102;104393;-80
2021/11/19 02:25:32;;;;;;;82.20;40.27;;;;;;;3.55;71.28;101169.97;125281;1102;104146;-79
2021/11/19 02:28:03;;;;;;;86.87;41.27;;;;;;;3.54;71.35;101169.86;125254;1102;104152;-79
2021/11/19 02:30:35;;;;;;;83.57;40.73;;;;;;;3.53;71.47;101171.53;125199;1102;104158;-80
2021/11/19 02:33:07;;;;;;;85.77;41.07;;;;;;;3.56;71.73;101168.27;125239;1102;104278;-79
2021/11/19 02:35:44;;;;;;;85.00;41.23;;;;;;;3.54;71.37;101159.48;125234;1102;104162;-79
2021/11/19 02:38:19;;;;;;;80.07;38.93;;;;;;;3.53;72.21;101158.55;125244;1102;104411;-79
2021/11/19 02:40:50;;;;;;;83.53;39.03;;;;;;;3.52;71.26;101158.44;125268;1102;104325;-78
2021/11/19 02:43:24;;;;;;;81.77;41.10;;;;;;;3.50;71.53;101149.65;125133;1102;104159;-79
2021/11/19 02:45:54;;;;;;;82.87;39.17;;;;;;;3.47;71.47;101152.91;125191;1102;104166;-79
2021/11/19 02:48:27;;;;;;;80.83;39.03;;;;;;;3.45;71.67;101149.30;125323;1102;104168;-80
2021/11/19 02:50:58;;;;;;;83.00;40.03;;;;;;;3.45;71.21;101153.60;125233;1102;104227;-79
2021/11/19 02:53:27;;;;;;;90.03;42.20;;;;;;;3.45;71.98;101149.30;125267;1102;104175;-78
2021/11/19 02:55:57;;;;;;;82.90;40.97;;;;;;;3.44;71.62;101156.97;125239;1102;104153;-80
2021/11/19 02:58:33;;;;;;;79.83;39.27;;;;;;;3.44;72.08;101141.41;125235;1102;104150;-80
2021/11/19 03:01:06;;;;;;;86.87;42.17;;;;;;;3.43;72.11;101150.89;125238;1102;104159;-80
2021/11/19 03:03:36;;;;;;;82.10;39.85;;;;;;;3.43;71.50;101143.11;125182;1101;104178;-80
2021/11/19 03:06:05;;;;;;;83.13;41.10;;;;;;;3.42;71.93;101142.18;125216;1102;104197;-79
2021/11/19 03:08:34;;;;;;;85.70;38.83;;;;;;;3.43;72.12;101140.52;125242;1101;104179;-80
2021/11/19 03:11:04;;;;;;;83.20;40.23;;;;;;;3.40;71.15;101142.88;125303;1102;104146;-80
2021/11/19 03:13:36;;;;;;;82.70;40.30;;;;;;;3.39;71.95;101130.69;125240;1102;104163;-80
2021/11/19 03:16:06;;;;;;;89.07;40.50;;;;;;;3.37;72.25;101133.16;125204;1102;108077;-80
2021/11/19 03:18:35;;;;;;;84.93;41.50;;;;;;;3.36;71.59;101133.94;125235;1102;104214;-80
2021/11/19 03:21:08;;;;;;;85.20;38.63;;;;;;;3.34;72.12;101138.13;125253;1101;104305;-79
2021/11/19 03:23:38;;;;;;;85.05;40.25;;;;;;;3.32;71.69;101138.78;125298;1102;104225;-79
2021/11/19 03:26:09;;;;;;;80.93;41.00;;;;;;;3.30;72.52;101141.27;125296;1102;104290;-79
2021/11/19 03:28:38;;;;;;;81.87;39.67;;;;;;;3.29;71.62;101128.17;125279;1102;104181;-79
2021/11/19 03:31:09;;;;;;;82.07;39.63;;;;;;;3.27;71.56;101129.77;125222;1102;104608;-79
2021/11/19 03:33:41;;;;;;;84.73;39.03;;;;;;;3.25;71.69;101134.84;125193;1102;104201;-80
2021/11/19 03:36:11;;;;;;;79.60;38.47;;;;;;;3.25;71.97;101134.84;125165;1099;104181;-80
2021/11/19 03:38:43;;;;;;;82.77;38.23;;;;;;;3.24;72.48;101133.02;125242;1102;104153;-80
2021/11/19 03:41:14;;;;;;;75.03;37.50;;;;;;;3.22;72.21;101127.72;125255;1102;104354;-80
2021/11/19 03:43:49;;;;;;;76.80;37.50;;;;;;;3.23;72.41;101128.64;125287;1102;104261;-79
2021/11/19 03:46:21;;;;;;;83.47;40.43;;;;;;;3.23;72.25;101119.16;125214;1099;104510;-80
2021/11/19 03:48:51;;;;;;;80.25;39.65;;;;;;;3.22;71.99;101116.45;125286;1102;104233;-79
2021/11/19 03:51:24;;;;;;;82.03;37.93;;;;;;;3.23;72.44;101120.86;125283;1102;104284;-79
2021/11/19 03:53:56;;;;;;;79.27;38.07;;;;;;;3.22;72.30;101124.23;125186;1102;104647;-80
2021/11/19 03:56:25;;;;;;;80.85;38.88;;;;;;;3.22;72.32;101119.94;126307;1099;104196;-79
2021/11/19 03:58:53;;;;;;;78.13;38.10;;;;;;;3.21;71.94;101114.63;126339;1099;104229;-79
2021/11/19 04:01:25;;;;;;;80.97;37.90;;;;;;;3.21;72.23;101112.97;126388;1099;104225;-80
2021/11/19 04:03:54;;;;;;;75.27;37.23;;;;;;;3.22;71.54;101119.94;126340;1099;104283;-80
2021/11/19 04:06:23;;;;;;;81.33;39.07;;;;;;;3.24;72.23;101112.27;126304;1098;104284;-79
2021/11/19 04:08:53;;;;;;;85.30;38.83;;;;;;;3.22;72.41;101114.75;126355;1099;104332;-79
2021/11/19 04:11:23;;;;;;;78.47;38.10;;;;;;;3.21;72.50;101110.38;126344;1099;104149;-79
2021/11/19 04:13:53;;;;;;;78.20;36.90;;;;;;;3.21;72.32;101112.04;126384;1099;104188;-80
2021/11/19 04:16:26;;;;;;;80.60;38.67;;;;;;;3.20;72.57;101105.96;126243;1099;104627;-80
2021/11/19 04:18:54;;;;;;;79.93;38.97;;;;;;;3.20;72.23;101111.15;126313;1099;104144;-80
2021/11/19 04:21:23;;;;;;;80.53;38.33;;;;;;;3.21;72.44;101112.04;126370;1099;104470;-79
2021/11/19 04:23:53;;;;;;;78.40;35.63;;;;;;;3.21;72.24;101110.38;126341;1099;104178;-80
2021/11/19 04:26:25;;;;;;;76.90;36.50;;;;;;;3.22;72.09;101111.27;126280;1099;104229;-79
2021/11/19 04:28:54;;;;;;;77.40;36.87;;;;;;;3.22;72.69;101114.75;126352;1099;104144;-79
2021/11/19 04:31:43;;;;;;;72.20;36.03;;;;;;;3.23;72.88;101111.37;126317;1098;104312;-80
2021/11/19 04:34:12;;;;;;;78.60;37.33;;;;;;;3.24;72.47;101110.60;126338;1099;104611;-80
2021/11/19 04:36:40;;;;;;;70.33;35.03;;;;;;;3.28;71.98;101110.83;126254;1099;104839;-80
2021/11/19 04:39:10;;;;;;;77.63;36.73;;;;;;;3.29;72.41;101110.02;126326;1099;104153;-79
2021/11/19 04:41:39;;;;;;;71.00;35.93;;;;;;;3.30;72.53;101111.84;126347;1099;104272;-80
2021/11/19 04:44:09;;;;;;;80.87;36.53;;;;;;;3.33;72.50;101107.77;126263;1099;104172;-80
2021/11/19 04:46:45;;;;;;;76.60;35.40;;;;;;;3.36;72.90;101097.63;126303;1098;104349;-81
2021/11/19 04:49:14;;;;;;;73.23;34.83;;;;;;;3.37;72.69;101104.63;126266;1099;104277;-81
2021/11/19 04:51:46;;;;;;;70.73;34.50;;;;;;;3.38;72.37;101098.66;126341;1099;104172;-81
2021/11/19 04:54:17;;;;;;;67.13;33.00;;;;;;;3.41;72.54;101106.67;126352;1099;104347;-80
2021/11/19 04:56:46;;;;;;;62.70;30.33;;;;;;;3.42;72.99;101110.16;126284;1099;105582;-82
2021/11/19 04:59:14;;;;;;;63.57;29.73;;;;;;;3.46;73.00;101103.49;126346;1099;104139;-81
2021/11/19 05:01:46;;;;;;;57.87;27.70;;;;;;;3.51;72.51;101099.56;126207;1099;104165;-81
2021/11/19 05:04:21;;;;;;;57.67;28.07;;;;;;;3.55;72.52;101104.17;126320;1099;104188;-81
2021/11/19 05:06:51;;;;;;;58.97;30.27;;;;;;;3.59;72.44;101101.91;126250;1099;104310;-81
2021/11/19 05:09:23;;;;;;;62.47;29.03;;;;;;;3.64;72.60;101102.25;126281;1099;104156;-81
2021/11/19 05:11:54;;;;;;;59.30;28.87;;;;;;;3.70;72.58;101105.30;126198;1099;104146;-81
2021/11/19 05:14:23;;;;;;;63.67;29.63;;;;;;;3.76;72.42;101100.55;126352;1099;104153;-81
2021/11/19 05:16:55;;;;;;;62.63;29.27;;;;;;;3.84;72.28;101103.70;126136;1099;104338;-81
2021/11/19 05:19:23;;;;;;;62.57;30.00;;;;;;;3.91;72.84;101105.03;126055;1099;104306;-82
2021/11/19 05:21:51;;;;;;;63.07;30.13;;;;;;;3.96;72.77;101095.91;126127;1099;104159;-82
2021/11/19 05:24:20;;;;;;;58.33;29.43;;;;;;;4.04;73.09;101091.27;126129;1099;104434;-81
2021/11/19 05:26:50;;;;;;;61.77;29.80;;;;;;;4.09;72.97;101095.08;126131;1099;104313;-81
2021/11/19 05:29:23;;;;;;;62.03;29.60;;;;;;;4.07;73.14;101091.48;126165;1099;104357;-81
2021/11/19 05:31:54;;;;;;;59.73;29.40;;;;;;;4.08;72.60;101083.80;126228;1099;104437;-82
2021/11/19 05:34:24;;;;;;;60.20;27.63;;;;;;;4.10;73.15;101091.70;126162;1099;104312;-80
2021/11/19 05:36:53;;;;;;;64.70;28.97;;;;;;;4.08;72.23;101082.88;126186;1099;104303;-80
2021/11/19 05:39:21;;;;;;;60.63;29.23;;;;;;;4.06;72.67;101087.06;126162;1099;104354;-81
2021/11/19 05:41:51;;;;;;;62.40;30.57;;;;;;;4.01;73.00;101085.84;126238;1099;104227;-81
2021/11/19 05:44:20;;;;;;;68.20;30.90;;;;;;;3.98;72.42;101091.72;126147;1099;104332;-81
2021/11/19 05:46:57;;;;;;;65.63;32.90;;;;;;;4.00;72.54;101079.73;126090;1099;104217;-82
2021/11/19 05:49:25;;;;;;;72.33;31.40;;;;;;;4.02;73.14;101077.24;126202;1099;104210;-82
2021/11/19 05:52:02;;;;;;;68.53;31.63;;;;;;;4.04;72.40;101078.28;126176;1099;104216;-81
2021/11/19 05:54:32;;;;;;;69.55;31.87;;;;;;;4.06;72.88;101066.30;126329;1099;104287;-81
2021/11/19 05:57:03;;;;;;;68.53;33.57;;;;;;;4.10;72.75;101065.73;126164;1099;104217;-81
2021/11/19 05:59:31;;;;;;;77.60;34.90;;;;;;;4.15;72.90;101074.73;126208;1099;108605;-81
2021/11/19 06:02:18;;;;;;;76.43;36.20;;;;;;;4.22;73.14;101066.56;126157;1099;104156;-80
2021/11/19 06:05:07;;;;;;;79.30;36.53;;;;;;;4.31;72.73;101069.80;126237;1099;104156;-82
2021/11/19 06:07:52;;;;;;;75.57;34.63;;;;;;;4.38;72.75;101067.63;126044;1099;102803;-81
2021/11/19 06:10:27;;;;;;;78.93;38.40;;;;;;;4.46;72.80;101061.30;126097;1099;104227;-81
2021/11/19 06:13:03;;;;;;;81.03;37.17;;;;;;;4.53;72.96;101067.81;126179;1099;104152;-81
2021/11/19 06:15:42;;;;;;;73.60;37.90;;;;;;;4.55;73.13;101066.20;126210;1099;104201;-81
2021/11/19 06:18:22;;;;;;;82.93;39.10;;;;;;;4.58;72.68;101064.73;126203;1099;104226;-82
2021/11/19 06:20:54;;;;;;;77.57;38.97;;;;;;;4.62;73.22;101066.73;126237;1099;104309;-81
2021/11/19 06:23:26;;;;;;;77.07;38.53;;;;;;;4.67;72.61;101065.38;126302;1099;104208;-83
2021/11/19 06:25:55;;;;;;;79.27;38.90;;;;;;;4.72;72.50;101062.16;126227;1099;104325;-82
2021/11/19 06:28:30;;;;;;;77.80;37.40;;;;;;;4.77;73.04;101068.56;126219;1099;104279;-83
2021/11/19 06:30:59;;;;;;;74.77;36.43;;;;;;;4.81;72.90;101067.98;126216;1099;104150;-83
2021/11/19 06:33:31;;;;;;;70.50;35.03;;;;;;;4.88;72.80;101054.62;126083;1099;104230;-82
2021/11/19 06:36:03;;;;;;;79.10;37.00;;;;;;;4.93;73.04;101044.53;126015;1099;104277;-84
2021/11/19 06:38:36;;;;;;;78.03;39.93;;;;;;;4.99;72.64;101051.03;126017;1099;104162;-82
2021/11/19 06:44:14;;;;;;;75.50;39.07;;;;;;;5.12;72.61;101039.73;126140;1099;104155;-81
2021/11/19 06:47:07;;;;;;;86.93;41.20;;;;;;;5.16;73.02;101036.55;126033;1098;104589;-81
2021/11/19 06:49:53;;;;;;;80.13;38.63;;;;;;;5.19;72.52;101044.55;126050;1099;104328;-81
2021/11/19 06:52:35;;;;;;;82.97;40.97;;;;;;;5.20;72.92;101038.56;126125;1098;104137;-80
2021/11/19 06:55:27;;;;;;;84.50;39.67;;;;;;;5.21;73.08;101040.34;126162;1099;104192;-81
2021/11/19 06:58:18;;;;;;;84.23;40.83;;;;;;;5.23;72.94;101045.64;126128;1099;104265;-82
2021/11/19 07:00:50;;;;;;;92.40;44.83;;;;;;;5.17;72.98;101034.83;125927;1099;104153;-80
2021/11/19 07:03:20;;;;;;;94.20;46.37;;;;;;;5.18;72.75;101027.13;126021;1098;104184;-79
2021/11/19 07:05:52;;;;;;;83.30;42.77;;;;;;;5.19;72.34;101031.54;125850;1099;104281;-80
2021/11/19 07:08:23;;;;;;;77.67;43.57;;;;;;;5.19;72.92;101028.05;125814;1099;104182;-79
2021/11/19 07:11:02;;;;;;;81.70;43.67;;;;;;;5.18;72.58;101027.13;125970;1099;104235;-79
2021/11/19 07:13:34;;;;;;;85.57;46.10;;;;;;;5.24;73.10;101021.44;126013;1099;104236;-79
2021/11/19 07:16:04;;;;;;;85.90;47.03;;;;;;;5.29;72.70;101025.23;126030;1099;104226;-82
2021/11/19 07:18:33;;;;;;;83.53;46.30;;;;;;;5.39;73.19;101021.52;125880;1098;104149;-81
2021/11/19 07:21:02;;;;;;;87.73;43.87;;;;;;;5.52;72.85;101020.63;125942;1099;104182;-80
2021/11/19 07:23:34;;;;;;;74.93;39.93;;;;;;;5.70;73.02;101023.48;126114;1099;104159;-79
2021/11/19 07:26:04;;;;;;;69.23;36.87;;;;;;;5.83;72.94;101023.47;126232;1099;104162;-81
2021/11/19 07:28:34;;;;;;;75.50;39.23;;;;;;;5.95;72.71;101023.33;126228;1099;104717;-80
2021/11/19 07:31:24;;;;;;;73.87;35.93;;;;;;;6.11;72.72;101018.31;126054;1099;108514;-78
2021/11/19 07:34:15;;;;;;;68.60;35.00;;;;;;;6.21;72.62;101018.88;126142;1099;104188;-80
2021/11/19 07:37:01;;;;;;;65.93;33.40;;;;;;;6.25;72.78;101021.77;126084;1099;104345;-80
2021/11/19 07:39:48;;;;;;;68.13;34.30;;;;;;;6.24;72.44;101019.95;126084;1099;104740;-79
2021/11/19 07:42:39;;;;;;;65.30;32.23;;;;;;;6.20;72.39;101017.99;126263;1098;102825;-80
2021/11/19 07:45:20;;;;;;;65.47;33.63;;;;;;;6.21;72.61;101019.77;126142;1099;104175;-79
2021/11/19 07:47:56;;;;;;;65.00;31.80;;;;;;;6.23;72.48;101018.18;126187;1099;104460;-79
2021/11/19 07:50:35;;;;;;;63.17;32.90;;;;;;;6.25;72.34;101020.88;125941;1099;104190;-80
2021/11/19 07:53:05;;;;;;;66.65;34.10;;;;;;;6.24;72.28;101008.64;125985;1098;104182;-81
2021/11/19 07:55:36;;;;;;;73.20;38.27;;;;;;;6.27;72.49;101014.05;125910;1098;104350;-80
2021/11/19 07:58:08;;;;;;;73.73;35.90;;;;;;;6.32;72.49;101010.00;125876;1099;104751;-81
2021/11/19 08:00:42;;;;;;;72.53;34.40;;;;;;;6.43;72.09;101011.55;125947;1099;104272;-79
2021/11/19 08:03:13;;;;;;;66.37;34.18;;;;;;;6.57;72.17;101008.88;126032;1099;104229;-80
2021/11/19 08:05:48;;;;;;;64.42;30.60;;;;;;;6.68;72.09;101002.59;125882;1099;104153;-79
2021/11/19 08:08:30;;;;;;;64.50;31.47;;;;;;;6.78;71.96;100998.84;125850;1099;104834;-79
2021/11/19 08:11:20;;;;;;;64.00;32.23;;;;;;;7.00;72.06;100999.27;125815;1099;104329;-81
2021/11/19 08:17:23;;;;;;;57.07;29.30;;;;;;;7.68;71.82;100989.12;125885;1099;104156;-80
2021/11/19 08:19:55;;;;;;;53.28;25.60;;;;;;;7.92;72.10;100984.34;126000;1099;104332;-82
2021/11/19 08:22:27;;;;;;;50.17;24.07;;;;;;;8.16;71.78;100982.13;126028;1099;118983;-83
2021/11/19 08:25:01;;;;;;;49.60;22.47;;;;;;;8.36;71.70;100980.57;125295;1099;104290;-82
2021/11/19 08:27:52;;;;;;;44.97;21.10;;;;;;;8.48;71.34;100967.28;126032;1099;104415;-79
2021/11/19 08:30:35;;;;;;;44.00;19.93;;;;;;;8.55;71.23;100968.48;126042;1099;102628;-79
2021/11/19 08:33:08;;;;;;;38.40;19.23;;;;;;;8.61;71.37;100956.61;125284;1099;104296;-80
2021/11/19 08:35:39;;;;;;;34.87;17.70;;;;;;;8.69;71.32;100953.48;125218;1102;104150;-82
2021/11/19 08:41:16;;;;;;;31.80;15.07;;;;;;;8.86;70.92;100939.52;125155;1102;104220;-81
2021/11/19 08:43:55;;;;;;;34.03;14.63;;;;;;;8.94;70.92;100935.59;125174;1099;104188;-82
2021/11/19 08:46:41;;;;;;;37.93;15.17;;;;;;;9.07;70.33;100941.39;125891;1099;104169;-80
2021/11/19 08:49:15;;;;;;;33.73;14.40;;;;;;;9.15;69.97;100929.59;125338;1099;104341;-80
2021/11/19 08:51:46;;;;;;;29.67;13.55;;;;;;;9.20;69.53;100927.20;125641;1099;104152;-79
2021/11/19 08:54:18;;;;;;;30.10;12.97;;;;;;;9.22;69.85;100923.81;125173;1102;104204;-79
2021/11/19 08:56:54;;;;;;;27.93;13.80;;;;;;;9.21;68.70;100908.03;125225;1102;104207;-81
2021/11/19 08:59:26;;;;;;;29.40;13.83;;;;;;;9.14;68.48;100915.59;125279;1099;104236;-81
2021/11/19 09:01:58;;;;;;;28.33;13.30;;;;;;;9.10;68.00;100913.67;125398;1099;104287;-81
2021/11/19 09:04:34;;;;;;;28.93;13.50;;;;;;;9.04;67.85;100909.83;125374;1099;104280;-82
2021/11/19 09:07:06;;;;;;;28.87;13.37;;;;;;;9.00;68.16;100912.30;126166;1099;104280;-80
2021/11/19 09:09:43;;;;;;;29.80;14.23;;;;;;;9.00;67.84;100904.45;125376;1099;104300;-79
2021/11/19 09:12:33;;;;;;;30.60;13.93;;;;;;;8.95;67.98;100902.45;126228;1099;104255;-79
2021/11/19 09:15:15;;;;;;;28.97;12.57;;;;;;;8.92;67.89;100897.95;126102;1099;104404;-79
2021/11/19 09:18:03;;;;;;;32.90;14.17;;;;;;;8.90;67.83;100896.99;126095;1099;104332;-81
2021/11/19 09:20:54;;;;;;;28.87;13.90;;;;;;;8.91;67.13;100885.71;126185;1099;104675;-80
2021/11/19 09:23:39;;;;;;;31.33;14.40;;;;;;;8.97;67.10;100885.09;126052;1099;104226;-80
2021/11/19 09:26:39;;;;;;;28.13;13.53;;;;;;;9.02;67.64;100885.31;126141;1099;104197;-79
2021/11/19 09:29:19;;;;;;;27.43;13.83;;;;;;;9.10;66.74;100886.56;126165;1099;104364;-80
2021/11/19 09:31:51;;;;;;;30.43;14.20;;;;;;;9.15;66.71;100875.50;126237;1099;104273;-81
2021/11/19 09:34:23;;;;;;;;;;;;;;;9.22;66.09;100871.44;126235;1099;104817;-79
2021/11/19 09:36:55;;;;;;;30.50;14.03;;;;;;;9.29;66.44;100862.17;125301;1099;104417;-80
2021/11/19 09:39:44;;;;;;;29.63;15.13;;;;;;;9.35;66.35;100863.34;125371;1099;104216;-79
2021/11/19 09:42:23;;;;;;;28.73;14.90;;;;;;;9.45;66.47;100854.18;125538;1099;104191;-79
2021/11/19 09:45:13;;;;;;;28.33;13.83;;;;;;;9.50;65.18;100855.28;125921;1099;104300;-80
2021/11/19 09:47:55;;;;;;;35.23;17.13;;;;;;;9.51;65.80;100848.34;126104;1099;104306;-80
2021/11/19 09:50:58;;;;;;;31.67;15.77;;;;;;;9.54;65.62;100838.88;125290;1099;104200;-81
2021/11/19 09:54:07;;;;;;;30.03;15.00;;;;;;;9.62;66.15;100830.48;125639;1099;102254;-81
2021/11/19 09:57:06;;;;;;;29.97;14.43;;;;;;;9.66;65.06;100822.83;125373;1099;104140;-80
2021/11/19 09:59:43;;;;;;;33.95;15.40;;;;;;;9.69;65.13;100820.34;126132;1098;104412;-79
2021/11/19 10:02:43;;;;;;;30.10;14.55;;;;;;;9.69;65.07;100817.73;125197;1101;102210;-81
2021/11/19 10:05:28;;;;;;;31.23;14.00;;;;;;;9.68;64.82;100805.44;125768;1099;109963;-80
2021/11/19 10:08:14;;;;;;;31.97;14.57;;;;;;;9.63;65.04;100801.73;125950;1098;104377;-81
2021/11/19 10:10:59;;;;;;;27.47;13.80;;;;;;;9.61;64.91;100800.75;126025;1099;104171;-81
2021/11/19 10:13:56;;;;;;;29.97;14.33;;;;;;;9.57;64.52;100785.73;126051;1099;104275;-81
2021/11/19 10:16:37;;;;;;;28.73;14.70;;;;;;;9.51;64.56;100783.73;126060;1099;104255;-79
2021/11/19 10:19:12;;;;;;;32.83;15.70;;;;;;;9.49;64.80;100781.86;125996;1099;104171;-79
2021/11/19 10:21:55;;;;;;;35.90;15.57;;;;;;;9.44;63.72;100773.83;126023;1099;104265;-79
2021/11/19 10:24:35;;;;;;;35.97;17.13;;;;;;;9.38;63.49;100760.46;125968;1099;104392;-80
2021/11/19 10:27:22;;;;;;;32.40;15.90;;;;;;;9.32;63.92;100761.07;126055;1099;104213;-81
2021/11/19 10:30:00;;;;;;;34.33;16.40;;;;;;;9.29;63.36;100750.45;125967;1098;104216;-79
2021/11/19 10:32:32;;;;;;;33.77;16.33;;;;;;;9.29;63.93;100746.95;125971;1099;104178;-79
2021/11/19 10:35:14;;;;;;;33.03;16.87;;;;;;;9.28;63.69;100756.51;125934;1099;104207;-82
2021/11/19 10:38:10;;;;;;;36.80;17.07;;;;;;;9.28;63.39;100750.39;126145;1099;103616;-78
2021/11/19 10:41:09;;;;;;;39.23;17.47;;;;;;;9.31;63.30;100747.91;125383;1099;104505;-80
2021/11/19 10:44:01;;;;;;;31.93;16.40;;;;;;;9.37;63.87;100739.44;125270;1099;104153;-81
2021/11/19 10:46:56;;;;;;;35.97;16.27;;;;;;;9.42;63.06;100720.46;125559;1099;109405;-81
2021/11/19 10:49:43;;;;;;;35.03;17.07;;;;;;;9.49;63.41;100721.61;125888;1098;104142;-80
2021/11/19 10:52:58;;;;;;;33.83;16.40;;;;;;;9.57;63.31;100715.00;125976;1099;104296;-81
2021/11/19 10:55:55;;;;;;;33.33;16.40;;;;;;;9.69;63.34;100710.30;125832;1099;104184;-81
2021/11/19 10:59:03;;;;;;;35.60;16.50;;;;;;;9.83;62.59;100700.39;126031;1099;104149;-80
2021/11/19 11:02:00;;;;;;;30.30;14.90;;;;;;;9.96;63.31;100695.66;125742;1099;104675;-81
2021/11/19 11:04:52;;;;;;;30.97;15.47;;;;;;;10.03;62.54;100706.44;125820;1099;104296;-81
2021/11/19 11:07:27;;;;;;;33.30;16.10;;;;;;;10.07;62.25;100705.73;125859;1099;102915;-82
2021/11/19 11:10:03;;;;;;;34.03;15.83;;;;;;;10.07;62.41;100702.23;126011;1099;104313;-81
2021/11/19 11:12:57;;;;;;;33.27;15.73;;;;;;;10.04;62.58;100712.59;125956;1099;104175;-83
2021/11/19 11:15:32;;;;;;;31.47;15.43;;;;;;;10.01;62.11;100707.22;126014;1099;104214;-83
2021/11/19 11:18:21;;;;;;;35.07;16.23;;;;;;;9.94;62.19;100699.92;125940;1098;104175;-84
2021/11/19 11:21:13;;;;;;;28.57;14.33;;;;;;;9.87;62.08;100680.44;125951;1099;103034;-83
2021/11/19 11:24:10;;;;;;;30.70;14.13;;;;;;;9.81;62.15;100688.93;125884;1099;104380;-82
2021/11/19 11:26:48;;;;;;;31.62;14.45;;;;;;;9.82;61.72;100671.50;125832;1099;104182;-84
2021/11/19 11:29:35;;;;;;;36.23;14.90;;;;;;;9.88;61.90;100674.37;125957;1099;104495;-82
2021/11/19 11:32:33;;;;;;;30.10;13.80;;;;;;;9.95;61.56;100665.03;125216;1099;104171;-80
2021/11/19 11:35:16;;;;;;;28.23;13.43;;;;;;;10.01;61.35;100655.67;125827;1099;104156;-80
2021/11/19 11:37:53;;;;;;;;;;;;;;;10.01;60.63;100642.56;125776;1098;107982;-79
2021/11/19 11:40:35;;;;;;;27.13;13.30;;;;;;;10.05;61.32;100639.25;126012;1099;104169;-80
2021/11/19 11:43:21;;;;;;;29.10;15.03;;;;;;;10.11;60.62;100635.06;126044;1099;104272;-79
2021/11/19 11:46:20;;;;;;;29.20;13.13;;;;;;;10.23;60.38;100632.93;126031;1099;104175;-79
2021/11/19 11:49:03;;;;;;;26.43;12.77;;;;;;;10.36;60.62;100623.84;125977;1099;104155;-80
2021/11/19 11:52:04;;;;;;;27.37;13.30;;;;;;;10.45;59.67;100615.44;125190;1099;101934;-80